sensor_id;sensor_type;location;lat;lon;timestamp;pressure;altitude;pressure_sealevel;temperature;humidity
74798;BME280;63326;45.088;7.658;2023-08-21T00:01:47;99213.16;;;25.00;82.20
74798;BME280;63326;45.088;7.658;2023-08-21T00:04:13;99244.78;;;25.13;82.64
74798;BME280;63326;45.088;7.658;2023-08-21T00:06:40;99252.75;;;25.09;82.90
74798;BME280;63326;45.088;7.658;2023-08-21T00:09:07;99226.56;;;24.87;83.52
74798;BME280;63326;45.088;7.658;2023-08-21T00:11:34;99247.19;;;24.94;84.70
74798;BME280;63326;45.088;7.658;2023-08-21T00:14:01;99247.72;;;24.91;85.43
74798;BME280;63326;45.088;7.658;2023-08-21T00:16:28;99246.06;;;24.85;86.10
74798;BME280;63326;45.088;7.658;2023-08-21T00:18:55;99243.28;;;24.80;85.96
74798;BME280;63326;45.088;7.658;2023-08-21T00:21:22;99198.88;;;24.46;86.04
74798;BME280;63326;45.088;7.658;2023-08-21T00:23:48;99190.31;;;24.37;86.92
74798;BME280;63326;45.088;7.658;2023-08-21T00:26:15;99242.09;;;24.66;86.73
74798;BME280;63326;45.088;7.658;2023-08-21T00:28:42;99238.75;;;24.59;87.05
74798;BME280;63326;45.088;7.658;2023-08-21T00:31:09;99237.09;;;24.58;86.26
74798;BME280;63326;45.088;7.658;2023-08-21T00:33:36;99221.94;;;24.45;86.12
74798;BME280;63326;45.088;7.658;2023-08-21T00:36:03;99218.59;;;24.43;88.24
74798;BME280;63326;45.088;7.658;2023-08-21T00:38:30;99250.00;;;24.57;89.18
74798;BME280;63326;45.088;7.658;2023-08-21T00:40:58;99212.31;;;24.47;89.55
74798;BME280;63326;45.088;7.658;2023-08-21T00:43:24;99240.94;;;24.62;90.10
74798;BME280;63326;45.088;7.658;2023-08-21T00:45:52;99237.91;;;24.58;91.07
74798;BME280;63326;45.088;7.658;2023-08-21T00:48:19;99238.19;;;24.56;92.37
74798;BME280;63326;45.088;7.658;2023-08-21T00:50:46;99237.31;;;24.51;92.88
74798;BME280;63326;45.088;7.658;2023-08-21T00:53:13;99219.06;;;24.30;92.83
74798;BME280;63326;45.088;7.658;2023-08-21T00:55:41;99220.16;;;24.28;92.69
74798;BME280;63326;45.088;7.658;2023-08-21T00:58:12;99224.34;;;24.41;91.79
74798;BME280;63326;45.088;7.658;2023-08-21T01:00:42;99232.31;;;24.43;90.83
74798;BME280;63326;45.088;7.658;2023-08-21T01:03:11;99234.03;;;24.54;91.69
74798;BME280;63326;45.088;7.658;2023-08-21T01:05:38;99215.72;;;24.22;92.04
74798;BME280;63326;45.088;7.658;2023-08-21T01:08:13;99244.59;;;24.30;92.27
74798;BME280;63326;45.088;7.658;2023-08-21T01:10:58;99253.56;;;24.20;93.46
74798;BME280;63326;45.088;7.658;2023-08-21T01:13:40;99245.75;;;24.34;92.02
74798;BME280;63326;45.088;7.658;2023-08-21T01:16:12;99243.22;;;24.33;91.91
74798;BME280;63326;45.088;7.658;2023-08-21T01:18:40;99232.38;;;24.11;92.85
74798;BME280;63326;45.088;7.658;2023-08-21T01:21:08;99215.88;;;24.06;93.09
74798;BME280;63326;45.088;7.658;2023-08-21T01:23:36;99210.56;;;23.94;93.58
74798;BME280;63326;45.088;7.658;2023-08-21T01:26:07;99235.09;;;24.06;93.38
74798;BME280;63326;45.088;7.658;2023-08-21T01:28:34;99141.06;;;23.46;93.99
74798;BME280;63326;45.088;7.658;2023-08-21T01:31:12;99246.06;;;24.06;94.34
74798;BME280;63326;45.088;7.658;2023-08-21T01:33:45;99237.66;;;23.90;94.36
74798;BME280;63326;45.088;7.658;2023-08-21T01:36:20;99245.41;;;23.93;94.29
74798;BME280;63326;45.088;7.658;2023-08-21T01:38:49;99246.44;;;23.87;93.47
74798;BME280;63326;45.088;7.658;2023-08-21T01:41:18;99222.69;;;23.71;93.78
74798;BME280;63326;45.088;7.658;2023-08-21T01:43:44;99250.34;;;23.96;93.33
74798;BME280;63326;45.088;7.658;2023-08-21T01:46:12;99238.75;;;23.89;92.31
74798;BME280;63326;45.088;7.658;2023-08-21T01:48:38;99199.63;;;23.67;92.00
74798;BME280;63326;45.088;7.658;2023-08-21T01:51:05;99229.69;;;23.84;91.46
74798;BME280;63326;45.088;7.658;2023-08-21T01:53:32;99222.50;;;23.83;91.35
74798;BME280;63326;45.088;7.658;2023-08-21T01:55:58;99228.84;;;23.83;91.45
74798;BME280;63326;45.088;7.658;2023-08-21T01:58:25;99238.22;;;23.92;91.17
74798;BME280;63326;45.088;7.658;2023-08-21T02:00:52;99239.59;;;23.90;91.60
74798;BME280;63326;45.088;7.658;2023-08-21T02:03:19;99237.41;;;23.92;90.65
74798;BME280;63326;45.088;7.658;2023-08-21T02:05:46;99246.63;;;24.08;89.98
74798;BME280;63326;45.088;7.658;2023-08-21T02:08:13;99225.94;;;23.95;89.98
74798;BME280;63326;45.088;7.658;2023-08-21T02:10:51;99226.69;;;23.90;89.34
74798;BME280;63326;45.088;7.658;2023-08-21T02:13:18;99245.50;;;24.04;90.23
74798;BME280;63326;45.088;7.658;2023-08-21T02:15:46;99240.22;;;23.97;90.51
74798;BME280;63326;45.088;7.658;2023-08-21T02:18:13;99235.75;;;23.91;90.26
74798;BME280;63326;45.088;7.658;2023-08-21T02:20:41;99244.88;;;23.96;90.06
74798;BME280;63326;45.088;7.658;2023-08-21T02:23:09;99257.59;;;24.08;88.82
74798;BME280;63326;45.088;7.658;2023-08-21T02:25:35;99252.41;;;24.11;85.49
74798;BME280;63326;45.088;7.658;2023-08-21T02:28:02;99246.78;;;24.28;82.77
74798;BME280;63326;45.088;7.658;2023-08-21T02:30:31;99255.69;;;24.45;81.39
74798;BME280;63326;45.088;7.658;2023-08-21T02:32:58;99250.19;;;24.45;81.57
74798;BME280;63326;45.088;7.658;2023-08-21T02:35:25;99242.25;;;24.49;80.46
74798;BME280;63326;45.088;7.658;2023-08-21T02:37:51;99250.25;;;24.55;79.77
74798;BME280;63326;45.088;7.658;2023-08-21T02:40:18;99240.88;;;24.51;79.31
74798;BME280;63326;45.088;7.658;2023-08-21T02:42:45;99211.66;;;24.30;79.63
74798;BME280;63326;45.088;7.658;2023-08-21T02:45:12;99240.31;;;24.44;80.66
74798;BME280;63326;45.088;7.658;2023-08-21T02:47:39;99249.38;;;24.45;80.80
74798;BME280;63326;45.088;7.658;2023-08-21T02:50:08;99249.88;;;24.37;80.60
74798;BME280;63326;45.088;7.658;2023-08-21T02:52:37;99261.41;;;24.44;79.16
74798;BME280;63326;45.088;7.658;2023-08-21T02:55:05;99255.09;;;24.43;79.44
74798;BME280;63326;45.088;7.658;2023-08-21T02:57:32;99257.56;;;24.40;79.39
74798;BME280;63326;45.088;7.658;2023-08-21T02:59:58;99239.03;;;24.20;80.41
74798;BME280;63326;45.088;7.658;2023-08-21T03:02:25;99242.59;;;24.15;82.36
74798;BME280;63326;45.088;7.658;2023-08-21T03:04:52;99255.72;;;24.13;82.98
74798;BME280;63326;45.088;7.658;2023-08-21T03:07:19;99221.53;;;23.94;84.63
74798;BME280;63326;45.088;7.658;2023-08-21T03:09:46;99264.81;;;24.14;82.80
74798;BME280;63326;45.088;7.658;2023-08-21T03:12:13;99263.84;;;24.03;85.50
74798;BME280;63326;45.088;7.658;2023-08-21T03:14:40;99258.31;;;23.98;85.96
74798;BME280;63326;45.088;7.658;2023-08-21T03:17:08;99253.03;;;23.91;87.03
74798;BME280;63326;45.088;7.658;2023-08-21T03:19:35;99260.16;;;23.87;88.11
74798;BME280;63326;45.088;7.658;2023-08-21T03:22:02;99250.25;;;23.86;91.76
74798;BME280;63326;45.088;7.658;2023-08-21T03:24:29;99214.38;;;23.61;92.54
74798;BME280;63326;45.088;7.658;2023-08-21T03:26:56;99257.34;;;23.82;92.53
74798;BME280;63326;45.088;7.658;2023-08-21T03:29:23;99252.03;;;23.70;92.26
74798;BME280;63326;45.088;7.658;2023-08-21T03:31:53;99251.75;;;23.72;93.58
74798;BME280;63326;45.088;7.658;2023-08-21T03:34:21;99249.03;;;23.72;93.56
74798;BME280;63326;45.088;7.658;2023-08-21T03:36:53;99251.75;;;23.72;93.97
74798;BME280;63326;45.088;7.658;2023-08-21T03:39:19;99247.91;;;23.68;93.52
74798;BME280;63326;45.088;7.658;2023-08-21T03:41:46;99250.47;;;23.80;93.08
74798;BME280;63326;45.088;7.658;2023-08-21T03:44:14;99250.09;;;23.71;92.77
74798;BME280;63326;45.088;7.658;2023-08-21T03:46:41;99232.13;;;23.53;93.97
74798;BME280;63326;45.088;7.658;2023-08-21T03:49:09;99248.63;;;23.58;95.04
74798;BME280;63326;45.088;7.658;2023-08-21T03:51:36;99257.66;;;23.59;94.39
74798;BME280;63326;45.088;7.658;2023-08-21T03:54:03;99236.16;;;23.46;93.96
74798;BME280;63326;45.088;7.658;2023-08-21T03:56:30;99256.53;;;23.55;94.22
74798;BME280;63326;45.088;7.658;2023-08-21T03:58:57;99258.66;;;23.48;95.05
74798;BME280;63326;45.088;7.658;2023-08-21T04:01:23;99249.81;;;23.40;95.78
74798;BME280;63326;45.088;7.658;2023-08-21T04:03:50;99265.22;;;23.47;96.27
74798;BME280;63326;45.088;7.658;2023-08-21T04:06:17;99267.34;;;23.39;97.80
74798;BME280;63326;45.088;7.658;2023-08-21T04:08:44;99268.38;;;23.33;97.39
74798;BME280;63326;45.088;7.658;2023-08-21T04:11:11;99265.53;;;23.28;97.53
74798;BME280;63326;45.088;7.658;2023-08-21T04:13:43;99263.75;;;23.17;98.18
74798;BME280;63326;45.088;7.658;2023-08-21T04:16:10;99265.84;;;23.10;98.41
74798;BME280;63326;45.088;7.658;2023-08-21T04:18:40;99264.47;;;23.07;99.12
74798;BME280;63326;45.088;7.658;2023-08-21T04:21:08;99267.22;;;23.07;98.80
74798;BME280;63326;45.088;7.658;2023-08-21T04:23:36;99270.22;;;23.06;99.36
74798;BME280;63326;45.088;7.658;2023-08-21T04:26:04;99274.91;;;23.10;100.00
74798;BME280;63326;45.088;7.658;2023-08-21T04:28:31;99276.81;;;23.10;100.00
74798;BME280;63326;45.088;7.658;2023-08-21T04:30:59;99277.91;;;23.09;100.00
74798;BME280;63326;45.088;7.658;2023-08-21T04:33:28;99277.66;;;23.10;100.00
74798;BME280;63326;45.088;7.658;2023-08-21T04:35:55;99248.16;;;22.74;100.00
74798;BME280;63326;45.088;7.658;2023-08-21T04:38:22;99270.19;;;22.84;100.00
74798;BME280;63326;45.088;7.658;2023-08-21T04:40:49;99274.28;;;22.81;100.00
74798;BME280;63326;45.088;7.658;2023-08-21T04:43:16;99272.94;;;22.84;100.00
74798;BME280;63326;45.088;7.658;2023-08-21T04:45:50;99284.47;;;22.86;100.00
74798;BME280;63326;45.088;7.658;2023-08-21T04:48:18;99282.84;;;22.90;100.00
74798;BME280;63326;45.088;7.658;2023-08-21T04:50:47;99272.81;;;22.96;100.00
74798;BME280;63326;45.088;7.658;2023-08-21T04:53:14;99280.16;;;23.12;100.00
74798;BME280;63326;45.088;7.658;2023-08-21T04:55:41;99289.88;;;23.25;100.00
74798;BME280;63326;45.088;7.658;2023-08-21T04:58:09;99294.28;;;23.26;100.00
74798;BME280;63326;45.088;7.658;2023-08-21T05:00:36;99295.00;;;23.16;100.00
74798;BME280;63326;45.088;7.658;2023-08-21T05:03:06;99294.41;;;23.14;100.00
74798;BME280;63326;45.088;7.658;2023-08-21T05:05:33;99285.00;;;23.05;100.00
74798;BME280;63326;45.088;7.658;2023-08-21T05:07:59;99297.72;;;23.16;100.00
74798;BME280;63326;45.088;7.658;2023-08-21T05:10:27;99302.59;;;23.31;100.00
74798;BME280;63326;45.088;7.658;2023-08-21T05:12:56;99286.25;;;23.41;98.25
74798;BME280;63326;45.088;7.658;2023-08-21T05:15:24;99304.81;;;23.56;97.43
74798;BME280;63326;45.088;7.658;2023-08-21T05:17:50;99283.13;;;23.54;96.74
74798;BME280;63326;45.088;7.658;2023-08-21T05:20:19;99307.41;;;23.94;94.27
74798;BME280;63326;45.088;7.658;2023-08-21T05:22:45;99303.84;;;23.99;94.16
74798;BME280;63326;45.088;7.658;2023-08-21T05:25:12;99297.03;;;24.02;92.84
74798;BME280;63326;45.088;7.658;2023-08-21T05:27:39;99308.91;;;24.07;93.28
74798;BME280;63326;45.088;7.658;2023-08-21T05:30:06;99308.00;;;24.28;91.52
74798;BME280;63326;45.088;7.658;2023-08-21T05:32:33;99316.50;;;24.32;91.16
74798;BME280;63326;45.088;7.658;2023-08-21T05:35:00;99310.63;;;24.50;90.13
74798;BME280;63326;45.088;7.658;2023-08-21T05:37:29;99298.59;;;24.56;88.87
74798;BME280;63326;45.088;7.658;2023-08-21T05:39:56;99303.59;;;24.65;87.98
74798;BME280;63326;45.088;7.658;2023-08-21T05:42:23;99314.75;;;24.85;86.53
74798;BME280;63326;45.088;7.658;2023-08-21T05:44:50;99312.00;;;24.90;86.59
74798;BME280;63326;45.088;7.658;2023-08-21T05:47:17;99317.28;;;25.02;86.52
74798;BME280;63326;45.088;7.658;2023-08-21T05:49:43;99293.44;;;25.12;84.05
74798;BME280;63326;45.088;7.658;2023-08-21T05:52:10;99307.03;;;25.39;83.14
74798;BME280;63326;45.088;7.658;2023-08-21T05:54:40;99288.91;;;25.44;82.19
74798;BME280;63326;45.088;7.658;2023-08-21T05:57:07;99323.88;;;25.63;82.37
74798;BME280;63326;45.088;7.658;2023-08-21T05:59:34;99313.72;;;25.69;82.42
74798;BME280;63326;45.088;7.658;2023-08-21T06:02:02;99305.47;;;25.69;81.04
74798;BME280;63326;45.088;7.658;2023-08-21T06:04:28;99322.63;;;26.17;79.06
74798;BME280;63326;45.088;7.658;2023-08-21T06:06:59;99315.47;;;26.16;77.22
74798;BME280;63326;45.088;7.658;2023-08-21T06:09:28;99316.56;;;26.15;77.02
74798;BME280;63326;45.088;7.658;2023-08-21T06:11:56;99296.78;;;26.18;76.42
74798;BME280;63326;45.088;7.658;2023-08-21T06:14:23;99322.63;;;26.37;75.96
74798;BME280;63326;45.088;7.658;2023-08-21T06:17:03;99322.91;;;26.31;75.22
74798;BME280;63326;45.088;7.658;2023-08-21T06:19:30;99300.59;;;26.07;75.27
74798;BME280;63326;45.088;7.658;2023-08-21T06:21:57;99332.28;;;26.70;71.76
74798;BME280;63326;45.088;7.658;2023-08-21T06:24:24;99302.22;;;26.59;72.15
74798;BME280;63326;45.088;7.658;2023-08-21T06:26:56;99333.88;;;26.92;70.86
74798;BME280;63326;45.088;7.658;2023-08-21T06:29:24;99326.44;;;26.87;70.87
74798;BME280;63326;45.088;7.658;2023-08-21T06:31:50;99336.34;;;26.98;70.71
74798;BME280;63326;45.088;7.658;2023-08-21T06:34:17;99334.06;;;27.31;69.39
74798;BME280;63326;45.088;7.658;2023-08-21T06:36:44;99330.41;;;27.46;66.96
74798;BME280;63326;45.088;7.658;2023-08-21T06:39:10;99317.34;;;27.66;64.11
74798;BME280;63326;45.088;7.658;2023-08-21T06:41:37;99339.03;;;27.88;65.14
74798;BME280;63326;45.088;7.658;2023-08-21T06:44:04;99340.38;;;28.30;63.09
74798;BME280;63326;45.088;7.658;2023-08-21T06:46:30;99326.13;;;29.34;58.31
74798;BME280;63326;45.088;7.658;2023-08-21T06:48:57;99334.41;;;30.66;54.12
74798;BME280;63326;45.088;7.658;2023-08-21T06:51:24;99338.47;;;32.19;48.92
74798;BME280;63326;45.088;7.658;2023-08-21T06:53:51;99298.78;;;32.95;46.61
74798;BME280;63326;45.088;7.658;2023-08-21T06:56:17;99332.47;;;34.16;44.83
74798;BME280;63326;45.088;7.658;2023-08-21T06:58:44;99326.03;;;35.14;41.61
74798;BME280;63326;45.088;7.658;2023-08-21T07:01:11;99344.94;;;35.76;39.92
74798;BME280;63326;45.088;7.658;2023-08-21T07:03:37;99338.19;;;36.61;37.63
74798;BME280;63326;45.088;7.658;2023-08-21T07:06:04;99316.41;;;37.24;35.71
74798;BME280;63326;45.088;7.658;2023-08-21T07:08:31;99345.75;;;37.91;35.40
74798;BME280;63326;45.088;7.658;2023-08-21T07:10:58;99335.50;;;38.23;34.59
74798;BME280;63326;45.088;7.658;2023-08-21T07:13:28;99313.38;;;36.38;35.26
74798;BME280;63326;45.088;7.658;2023-08-21T07:15:54;99342.53;;;38.29;33.84
74798;BME280;63326;45.088;7.658;2023-08-21T07:18:22;99346.00;;;36.67;34.98
74798;BME280;63326;45.088;7.658;2023-08-21T07:20:51;99344.84;;;37.87;33.43
74798;BME280;63326;45.088;7.658;2023-08-21T07:23:18;99341.94;;;38.52;32.51
74798;BME280;63326;45.088;7.658;2023-08-21T07:25:44;99335.06;;;37.56;33.78
74798;BME280;63326;45.088;7.658;2023-08-21T07:28:11;99337.03;;;37.56;33.87
74798;BME280;63326;45.088;7.658;2023-08-21T07:30:38;99344.25;;;39.21;31.37
74798;BME280;63326;45.088;7.658;2023-08-21T07:33:06;99337.06;;;36.41;34.98
74798;BME280;63326;45.088;7.658;2023-08-21T07:35:32;99328.19;;;38.18;32.17
74798;BME280;63326;45.088;7.658;2023-08-21T07:37:59;99339.69;;;37.89;33.03
74798;BME280;63326;45.088;7.658;2023-08-21T07:40:26;99340.94;;;36.48;34.53
74798;BME280;63326;45.088;7.658;2023-08-21T07:42:52;99338.81;;;37.36;33.11
74798;BME280;63326;45.088;7.658;2023-08-21T07:45:19;99338.56;;;38.58;31.24
74798;BME280;63326;45.088;7.658;2023-08-21T07:47:46;99335.88;;;39.56;30.34
74798;BME280;63326;45.088;7.658;2023-08-21T07:50:23;99316.94;;;38.74;30.31
74798;BME280;63326;45.088;7.658;2023-08-21T07:52:50;99343.66;;;41.18;27.52
74798;BME280;63326;45.088;7.658;2023-08-21T07:55:42;99347.88;;;40.43;28.73
74798;BME280;63326;45.088;7.658;2023-08-21T07:58:08;99344.88;;;39.46;29.25
74798;BME280;63326;45.088;7.658;2023-08-21T08:00:36;99323.34;;;40.24;28.85
74798;BME280;63326;45.088;7.658;2023-08-21T08:03:03;99337.94;;;40.10;29.25
74798;BME280;63326;45.088;7.658;2023-08-21T08:05:30;99324.44;;;41.00;27.27
74798;BME280;63326;45.088;7.658;2023-08-21T08:08:04;99330.84;;;40.36;28.33
74798;BME280;63326;45.088;7.658;2023-08-21T08:10:31;99331.16;;;40.31;28.22
74798;BME280;63326;45.088;7.658;2023-08-21T08:12:57;99333.47;;;41.59;26.62
74798;BME280;63326;45.088;7.658;2023-08-21T08:15:24;99339.81;;;42.73;25.23
74798;BME280;63326;45.088;7.658;2023-08-21T08:17:53;99333.63;;;41.96;25.96
74798;BME280;63326;45.088;7.658;2023-08-21T08:20:21;99311.47;;;41.98;26.04
74798;BME280;63326;45.088;7.658;2023-08-21T08:22:48;99330.78;;;41.70;26.31
74798;BME280;63326;45.088;7.658;2023-08-21T08:25:15;99334.47;;;41.21;27.03
74798;BME280;63326;45.088;7.658;2023-08-21T08:27:41;99334.22;;;40.06;28.54
74798;BME280;63326;45.088;7.658;2023-08-21T08:30:08;99332.81;;;38.98;29.89
74798;BME280;63326;45.088;7.658;2023-08-21T08:32:35;99326.53;;;40.23;28.65
74798;BME280;63326;45.088;7.658;2023-08-21T08:35:03;99320.66;;;38.35;30.74
74798;BME280;63326;45.088;7.658;2023-08-21T08:37:30;99324.13;;;38.04;31.16
74798;BME280;63326;45.088;7.658;2023-08-21T08:39:56;99309.00;;;38.21;31.18
74798;BME280;63326;45.088;7.658;2023-08-21T08:42:23;99319.81;;;40.08;27.76
74798;BME280;63326;45.088;7.658;2023-08-21T08:44:50;99316.81;;;40.59;27.30
74798;BME280;63326;45.088;7.658;2023-08-21T08:47:21;99301.63;;;42.49;24.97
74798;BME280;63326;45.088;7.658;2023-08-21T08:49:48;99310.22;;;41.16;26.16
74798;BME280;63326;45.088;7.658;2023-08-21T08:52:17;99316.53;;;38.04;31.06
74798;BME280;63326;45.088;7.658;2023-08-21T08:54:45;99308.00;;;38.01;30.23
74798;BME280;63326;45.088;7.658;2023-08-21T08:57:13;99305.88;;;37.70;31.14
74798;BME280;63326;45.088;7.658;2023-08-21T08:59:40;99294.28;;;38.83;30.25
74798;BME280;63326;45.088;7.658;2023-08-21T09:02:06;99299.81;;;37.31;32.56
74798;BME280;63326;45.088;7.658;2023-08-21T09:04:33;99293.91;;;36.75;32.84
74798;BME280;63326;45.088;7.658;2023-08-21T09:07:09;99300.50;;;37.77;30.66
74798;BME280;63326;45.088;7.658;2023-08-21T09:09:40;99291.78;;;38.78;29.74
74798;BME280;63326;45.088;7.658;2023-08-21T09:12:10;99280.16;;;40.16;26.76
74798;BME280;63326;45.088;7.658;2023-08-21T09:14:41;99280.31;;;40.04;27.21
74798;BME280;63326;45.088;7.658;2023-08-21T09:17:08;99278.03;;;41.17;24.78
74798;BME280;63326;45.088;7.658;2023-08-21T09:19:35;99280.91;;;40.13;26.54
74798;BME280;63326;45.088;7.658;2023-08-21T09:22:13;99279.69;;;38.18;28.36
74798;BME280;63326;45.088;7.658;2023-08-21T09:25:08;99282.53;;;37.04;29.83
74798;BME280;63326;45.088;7.658;2023-08-21T09:27:38;99282.63;;;38.09;28.49
74798;BME280;63326;45.088;7.658;2023-08-21T09:30:08;99277.75;;;38.50;27.93
74798;BME280;63326;45.088;7.658;2023-08-21T09:32:56;99272.22;;;36.72;30.27
74798;BME280;63326;45.088;7.658;2023-08-21T09:35:23;99281.63;;;37.25;29.81
74798;BME280;63326;45.088;7.658;2023-08-21T09:37:50;99270.91;;;38.63;28.10
74798;BME280;63326;45.088;7.658;2023-08-21T09:40:21;99268.91;;;39.78;26.04
74798;BME280;63326;45.088;7.658;2023-08-21T09:42:52;99266.25;;;38.99;27.14
74798;BME280;63326;45.088;7.658;2023-08-21T09:45:24;99255.09;;;40.92;24.49
74798;BME280;63326;45.088;7.658;2023-08-21T09:47:54;99248.81;;;42.16;23.46
74798;BME280;63326;45.088;7.658;2023-08-21T09:50:21;99247.19;;;40.79;24.65
74798;BME280;63326;45.088;7.658;2023-08-21T09:52:50;99252.44;;;38.94;26.98
74798;BME280;63326;45.088;7.658;2023-08-21T09:55:17;99258.47;;;37.65;28.44
74798;BME280;63326;45.088;7.658;2023-08-21T09:57:45;99243.94;;;38.74;27.38
74798;BME280;63326;45.088;7.658;2023-08-21T10:00:12;99235.50;;;39.22;26.58
74798;BME280;63326;45.088;7.658;2023-08-21T10:02:42;99249.47;;;40.08;25.09
74798;BME280;63326;45.088;7.658;2023-08-21T10:05:16;99238.19;;;40.27;24.48
74798;BME280;63326;45.088;7.658;2023-08-21T10:07:48;99208.66;;;40.60;23.01
74798;BME280;63326;45.088;7.658;2023-08-21T10:10:17;99227.75;;;40.70;23.52
74798;BME280;63326;45.088;7.658;2023-08-21T10:12:43;99241.34;;;41.40;22.66
74798;BME280;63326;45.088;7.658;2023-08-21T10:15:10;99237.47;;;40.53;23.80
74798;BME280;63326;45.088;7.658;2023-08-21T10:17:37;99214.22;;;40.14;23.73
74798;BME280;63326;45.088;7.658;2023-08-21T10:20:06;99205.44;;;38.28;25.75
74798;BME280;63326;45.088;7.658;2023-08-21T10:22:44;99225.75;;;38.84;25.57
74798;BME280;63326;45.088;7.658;2023-08-21T10:27:42;99223.28;;;40.46;23.39
74798;BME280;63326;45.088;7.658;2023-08-21T10:30:20;99225.72;;;40.93;22.87
74798;BME280;63326;45.088;7.658;2023-08-21T10:32:48;99198.69;;;41.42;21.63
74798;BME280;63326;45.088;7.658;2023-08-21T10:35:16;99195.06;;;40.88;22.06
74798;BME280;63326;45.088;7.658;2023-08-21T10:40:38;99196.06;;;41.26;22.16
74798;BME280;63326;45.088;7.658;2023-08-21T10:46:04;99198.41;;;41.20;22.43
74798;BME280;63326;45.088;7.658;2023-08-21T10:48:30;99195.59;;;40.97;22.84
74798;BME280;63326;45.088;7.658;2023-08-21T10:50:58;99187.03;;;41.73;22.11
74798;BME280;63326;45.088;7.658;2023-08-21T10:53:25;99175.09;;;41.83;21.50
74798;BME280;63326;45.088;7.658;2023-08-21T10:55:53;99174.41;;;40.58;22.76
74798;BME280;63326;45.088;7.658;2023-08-21T10:58:21;99176.09;;;40.85;22.64
74798;BME280;63326;45.088;7.658;2023-08-21T11:00:58;99169.25;;;40.60;22.86
74798;BME280;63326;45.088;7.658;2023-08-21T11:03:26;99168.94;;;40.42;22.91
74798;BME280;63326;45.088;7.658;2023-08-21T11:06:09;99174.13;;;40.40;23.25
74798;BME280;63326;45.088;7.658;2023-08-21T11:08:36;99172.47;;;40.16;23.78
74798;BME280;63326;45.088;7.658;2023-08-21T11:11:05;99150.00;;;39.97;23.93
74798;BME280;63326;45.088;7.658;2023-08-21T11:13:32;99163.19;;;39.93;24.11
74798;BME280;63326;45.088;7.658;2023-08-21T11:16:02;99181.38;;;39.60;24.42
74798;BME280;63326;45.088;7.658;2023-08-21T11:18:34;99177.66;;;39.56;24.56
74798;BME280;63326;45.088;7.658;2023-08-21T11:21:09;99178.91;;;39.04;25.41
74798;BME280;63326;45.088;7.658;2023-08-21T11:23:38;99170.53;;;39.23;25.58
74798;BME280;63326;45.088;7.658;2023-08-21T11:26:06;99177.00;;;39.08;24.92
74798;BME280;63326;45.088;7.658;2023-08-21T11:28:47;99175.63;;;39.18;24.88
74798;BME280;63326;45.088;7.658;2023-08-21T11:31:14;99165.34;;;39.06;24.69
74798;BME280;63326;45.088;7.658;2023-08-21T11:33:40;99165.75;;;38.57;25.27
74798;BME280;63326;45.088;7.658;2023-08-21T11:36:07;99167.38;;;38.58;25.19
74798;BME280;63326;45.088;7.658;2023-08-21T11:38:35;99166.44;;;38.86;24.97
74798;BME280;63326;45.088;7.658;2023-08-21T11:41:05;99163.50;;;38.98;24.55
74798;BME280;63326;45.088;7.658;2023-08-21T11:43:39;99151.19;;;39.02;24.85
74798;BME280;63326;45.088;7.658;2023-08-21T11:46:07;99159.66;;;38.39;25.42
74798;BME280;63326;45.088;7.658;2023-08-21T11:48:37;99152.13;;;38.28;25.81
74798;BME280;63326;45.088;7.658;2023-08-21T11:51:04;99146.06;;;37.82;26.63
74798;BME280;63326;45.088;7.658;2023-08-21T11:56:00;99133.69;;;36.90;26.75
74798;BME280;63326;45.088;7.658;2023-08-21T11:58:27;99127.53;;;35.90;28.61
74798;BME280;63326;45.088;7.658;2023-08-21T12:01:02;99137.16;;;35.48;29.33
74798;BME280;63326;45.088;7.658;2023-08-21T12:03:31;99131.66;;;35.72;28.78
74798;BME280;63326;45.088;7.658;2023-08-21T12:06:10;99137.69;;;36.53;28.34
74798;BME280;63326;45.088;7.658;2023-08-21T12:08:38;99119.16;;;36.85;27.77
74798;BME280;63326;45.088;7.658;2023-08-21T12:11:06;99088.47;;;36.88;27.09
74798;BME280;63326;45.088;7.658;2023-08-21T12:13:32;99117.66;;;37.68;25.97
74798;BME280;63326;45.088;7.658;2023-08-21T12:16:02;99119.09;;;37.49;26.14
74798;BME280;63326;45.088;7.658;2023-08-21T12:18:29;99122.34;;;37.51;26.35
74798;BME280;63326;45.088;7.658;2023-08-21T12:20:55;99115.59;;;37.80;25.62
74798;BME280;63326;45.088;7.658;2023-08-21T12:23:22;99106.53;;;38.15;25.25
74798;BME280;63326;45.088;7.658;2023-08-21T12:25:48;99107.97;;;38.40;24.37
74798;BME280;63326;45.088;7.658;2023-08-21T12:28:16;99105.88;;;38.53;24.41
74798;BME280;63326;45.088;7.658;2023-08-21T12:30:42;99075.03;;;38.22;24.46
74798;BME280;63326;45.088;7.658;2023-08-21T12:33:09;99099.06;;;37.91;24.93
74798;BME280;63326;45.088;7.658;2023-08-21T12:35:49;99095.50;;;37.10;26.29
74798;BME280;63326;45.088;7.658;2023-08-21T12:38:16;99091.03;;;36.69;26.81
74798;BME280;63326;45.088;7.658;2023-08-21T12:40:42;99089.84;;;36.70;27.29
74798;BME280;63326;45.088;7.658;2023-08-21T12:43:09;99088.31;;;36.97;26.31
74798;BME280;63326;45.088;7.658;2023-08-21T12:45:36;99081.13;;;37.36;25.96
74798;BME280;63326;45.088;7.658;2023-08-21T12:48:04;99066.84;;;37.41;25.24
74798;BME280;63326;45.088;7.658;2023-08-21T12:50:31;99074.28;;;37.49;25.65
74798;BME280;63326;45.088;7.658;2023-08-21T12:52:58;99085.72;;;37.72;25.26
74798;BME280;63326;45.088;7.658;2023-08-21T12:55:24;99059.56;;;37.96;24.71
74798;BME280;63326;45.088;7.658;2023-08-21T12:57:51;99072.69;;;38.24;24.67
74798;BME280;63326;45.088;7.658;2023-08-21T13:00:18;99069.94;;;38.43;24.22
74798;BME280;63326;45.088;7.658;2023-08-21T13:02:44;99070.88;;;38.47;24.46
74798;BME280;63326;45.088;7.658;2023-08-21T13:05:11;99069.88;;;38.39;25.38
74798;BME280;63326;45.088;7.658;2023-08-21T13:07:37;99064.63;;;38.22;25.93
74798;BME280;63326;45.088;7.658;2023-08-21T13:10:04;99063.78;;;37.90;26.12
74798;BME280;63326;45.088;7.658;2023-08-21T13:12:31;99062.66;;;37.63;25.89
74798;BME280;63326;45.088;7.658;2023-08-21T13:14:58;99064.50;;;37.43;26.44
74798;BME280;63326;45.088;7.658;2023-08-21T13:17:25;99054.59;;;37.61;26.37